sensor_id;sensor_type;location;lat;lon;timestamp;temperature;humidity
1996;DHT22;38556;47.068;15.408;2022-09-09T00:01:00;18.90;99.90
1996;DHT22;38556;47.068;15.408;2022-09-09T00:03:37;18.90;99.90
1996;DHT22;38556;47.068;15.408;2022-09-09T00:06:13;18.90;99.90
1996;DHT22;38556;47.068;15.408;2022-09-09T00:08:53;19.00;99.90
1996;DHT22;38556;47.068;15.408;2022-09-09T00:11:30;18.90;99.90
1996;DHT22;38556;47.068;15.408;2022-09-09T00:14:03;18.90;99.90
1996;DHT22;38556;47.068;15.408;2022-09-09T00:16:36;18.90;99.90
1996;DHT22;38556;47.068;15.408;2022-09-09T00:19:14;18.90;99.90
1996;DHT22;38556;47.068;15.408;2022-09-09T00:21:51;18.80;99.90
1996;DHT22;38556;47.068;15.408;2022-09-09T00:24:28;18.80;99.90
1996;DHT22;38556;47.068;15.408;2022-09-09T00:27:02;18.80;99.90
1996;DHT22;38556;47.068;15.408;2022-09-09T00:29:36;18.70;99.90
1996;DHT22;38556;47.068;15.408;2022-09-09T00:32:12;18.70;99.90
1996;DHT22;38556;47.068;15.408;2022-09-09T00:34:48;18.00;99.90
1996;DHT22;38556;47.068;15.408;2022-09-09T00:37:19;18.40;99.90
1996;DHT22;38556;47.068;15.408;2022-09-09T00:39:47;18.40;99.90
1996;DHT22;38556;47.068;15.408;2022-09-09T00:42:22;18.40;99.90
1996;DHT22;38556;47.068;15.408;2022-09-09T00:44:53;18.50;99.90
1996;DHT22;38556;47.068;15.408;2022-09-09T00:47:42;18.40;99.90
1996;DHT22;38556;47.068;15.408;2022-09-09T00:50:24;18.40;99.90
1996;DHT22;38556;47.068;15.408;2022-09-09T00:53:05;17.80;99.90
1996;DHT22;38556;47.068;15.408;2022-09-09T00:55:43;17.40;99.90
1996;DHT22;38556;47.068;15.408;2022-09-09T00:58:12;17.00;99.90
1996;DHT22;38556;47.068;15.408;2022-09-09T01:00:43;16.30;99.90
1996;DHT22;38556;47.068;15.408;2022-09-09T01:03:20;16.00;99.90
1996;DHT22;38556;47.068;15.408;2022-09-09T01:06:01;16.10;99.90
1996;DHT22;38556;47.068;15.408;2022-09-09T01:11:38;16.90;99.90
1996;DHT22;38556;47.068;15.408;2022-09-09T01:14:14;16.90;99.90
1996;DHT22;38556;47.068;15.408;2022-09-09T01:16:45;17.20;99.90
1996;DHT22;38556;47.068;15.408;2022-09-09T01:19:23;17.10;99.90
1996;DHT22;38556;47.068;15.408;2022-09-09T01:21:59;17.30;99.90
1996;DHT22;38556;47.068;15.408;2022-09-09T01:24:35;17.40;99.90
1996;DHT22;38556;47.068;15.408;2022-09-09T01:27:06;17.60;99.90
1996;DHT22;38556;47.068;15.408;2022-09-09T01:29:36;16.60;99.90
1996;DHT22;38556;47.068;15.408;2022-09-09T01:32:37;17.80;99.90
1996;DHT22;38556;47.068;15.408;2022-09-09T01:35:09;17.90;99.90
1996;DHT22;38556;47.068;15.408;2022-09-09T01:37:37;17.90;99.90
1996;DHT22;38556;47.068;15.408;2022-09-09T01:40:06;17.80;99.90
1996;DHT22;38556;47.068;15.408;2022-09-09T01:42:35;17.80;99.90
1996;DHT22;38556;47.068;15.408;2022-09-09T01:45:04;17.80;99.90
1996;DHT22;38556;47.068;15.408;2022-09-09T01:47:32;17.70;99.90
1996;DHT22;38556;47.068;15.408;2022-09-09T01:50:01;17.50;99.90
1996;DHT22;38556;47.068;15.408;2022-09-09T01:52:28;17.50;99.90
1996;DHT22;38556;47.068;15.408;2022-09-09T01:54:56;17.60;99.90
1996;DHT22;38556;47.068;15.408;2022-09-09T01:57:26;17.60;99.90
1996;DHT22;38556;47.068;15.408;2022-09-09T02:00:03;17.70;99.90
1996;DHT22;38556;47.068;15.408;2022-09-09T02:02:36;17.80;99.90
1996;DHT22;38556;47.068;15.408;2022-09-09T02:05:17;17.80;99.90
1996;DHT22;38556;47.068;15.408;2022-09-09T02:07:49;17.80;99.90
1996;DHT22;38556;47.068;15.408;2022-09-09T02:10:20;17.70;99.90
1996;DHT22;38556;47.068;15.408;2022-09-09T02:12:52;17.80;99.90
1996;DHT22;38556;47.068;15.408;2022-09-09T02:15:28;17.70;99.90
1996;DHT22;38556;47.068;15.408;2022-09-09T02:17:57;17.70;99.90
1996;DHT22;38556;47.068;15.408;2022-09-09T02:20:26;17.60;99.90
1996;DHT22;38556;47.068;15.408;2022-09-09T02:22:55;17.60;99.90
1996;DHT22;38556;47.068;15.408;2022-09-09T02:25:25;17.50;99.90
1996;DHT22;38556;47.068;15.408;2022-09-09T02:27:53;17.40;99.90
1996;DHT22;38556;47.068;15.408;2022-09-09T02:30:21;17.40;99.90
1996;DHT22;38556;47.068;15.408;2022-09-09T02:32:52;17.30;99.90
1996;DHT22;38556;47.068;15.408;2022-09-09T02:35:23;16.90;99.90
1996;DHT22;38556;47.068;15.408;2022-09-09T02:37:54;17.00;99.90
1996;DHT22;38556;47.068;15.408;2022-09-09T02:40:24;17.10;99.90
1996;DHT22;38556;47.068;15.408;2022-09-09T02:42:54;17.10;99.90
1996;DHT22;38556;47.068;15.408;2022-09-09T02:45:24;16.80;99.90
1996;DHT22;38556;47.068;15.408;2022-09-09T02:48:02;17.00;99.90
1996;DHT22;38556;47.068;15.408;2022-09-09T02:50:33;17.30;99.90
1996;DHT22;38556;47.068;15.408;2022-09-09T02:53:07;17.30;99.90
1996;DHT22;38556;47.068;15.408;2022-09-09T02:55:41;17.40;99.90
1996;DHT22;38556;47.068;15.408;2022-09-09T02:58:16;17.40;99.90
1996;DHT22;38556;47.068;15.408;2022-09-09T03:00:45;17.40;99.90
1996;DHT22;38556;47.068;15.408;2022-09-09T03:03:16;17.40;99.90
1996;DHT22;38556;47.068;15.408;2022-09-09T03:05:43;17.50;99.90
1996;DHT22;38556;47.068;15.408;2022-09-09T03:08:11;17.50;99.90
1996;DHT22;38556;47.068;15.408;2022-09-09T03:10:39;17.60;99.90
1996;DHT22;38556;47.068;15.408;2022-09-09T03:13:06;17.60;99.90
1996;DHT22;38556;47.068;15.408;2022-09-09T03:15:35;17.60;99.90
1996;DHT22;38556;47.068;15.408;2022-09-09T03:18:03;17.70;99.90
1996;DHT22;38556;47.068;15.408;2022-09-09T03:20:32;17.70;99.90
1996;DHT22;38556;47.068;15.408;2022-09-09T03:23:00;17.70;99.90
1996;DHT22;38556;47.068;15.408;2022-09-09T03:25:28;17.70;99.90
1996;DHT22;38556;47.068;15.408;2022-09-09T03:27:56;17.60;99.90
1996;DHT22;38556;47.068;15.408;2022-09-09T03:30:25;17.60;99.90
1996;DHT22;38556;47.068;15.408;2022-09-09T03:32:53;17.60;99.90
1996;DHT22;38556;47.068;15.408;2022-09-09T03:35:21;17.50;99.90
1996;DHT22;38556;47.068;15.408;2022-09-09T03:37:49;17.40;99.90
1996;DHT22;38556;47.068;15.408;2022-09-09T03:40:17;17.30;99.90
1996;DHT22;38556;47.068;15.408;2022-09-09T03:42:45;17.30;99.90
1996;DHT22;38556;47.068;15.408;2022-09-09T03:45:12;17.30;99.90
1996;DHT22;38556;47.068;15.408;2022-09-09T03:47:39;17.20;99.90
1996;DHT22;38556;47.068;15.408;2022-09-09T03:50:08;17.20;99.90
1996;DHT22;38556;47.068;15.408;2022-09-09T03:52:37;17.30;99.90
1996;DHT22;38556;47.068;15.408;2022-09-09T03:55:07;17.20;99.90
1996;DHT22;38556;47.068;15.408;2022-09-09T04:00:03;17.40;99.90
1996;DHT22;38556;47.068;15.408;2022-09-09T04:02:31;17.30;99.90
1996;DHT22;38556;47.068;15.408;2022-09-09T04:04:58;17.30;99.90
1996;DHT22;38556;47.068;15.408;2022-09-09T04:07:26;17.30;99.90
1996;DHT22;38556;47.068;15.408;2022-09-09T04:09:53;17.40;99.90
1996;DHT22;38556;47.068;15.408;2022-09-09T04:12:22;17.40;99.90
1996;DHT22;38556;47.068;15.408;2022-09-09T04:14:50;17.20;99.90
1996;DHT22;38556;47.068;15.408;2022-09-09T04:17:17;17.00;99.90
1996;DHT22;38556;47.068;15.408;2022-09-09T04:19:44;16.80;99.90
1996;DHT22;38556;47.068;15.408;2022-09-09T04:22:12;16.90;99.90
1996;DHT22;38556;47.068;15.408;2022-09-09T04:24:39;16.90;99.90
1996;DHT22;38556;47.068;15.408;2022-09-09T04:27:07;16.80;99.90
1996;DHT22;38556;47.068;15.408;2022-09-09T04:29:35;16.50;99.90
1996;DHT22;38556;47.068;15.408;2022-09-09T04:32:03;16.50;99.90
1996;DHT22;38556;47.068;15.408;2022-09-09T04:34:31;16.50;99.90
1996;DHT22;38556;47.068;15.408;2022-09-09T04:36:59;16.70;99.90
1996;DHT22;38556;47.068;15.408;2022-09-09T04:41:54;17.00;99.90
1996;DHT22;38556;47.068;15.408;2022-09-09T04:44:22;17.10;99.90
1996;DHT22;38556;47.068;15.408;2022-09-09T04:46:51;17.20;99.90
1996;DHT22;38556;47.068;15.408;2022-09-09T04:49:18;17.20;99.90
1996;DHT22;38556;47.068;15.408;2022-09-09T04:51:45;17.40;99.90
1996;DHT22;38556;47.068;15.408;2022-09-09T04:54:13;17.40;99.90
1996;DHT22;38556;47.068;15.408;2022-09-09T04:56:41;17.40;99.90
1996;DHT22;38556;47.068;15.408;2022-09-09T04:59:09;17.50;99.90
1996;DHT22;38556;47.068;15.408;2022-09-09T05:01:37;17.50;99.90
1996;DHT22;38556;47.068;15.408;2022-09-09T05:04:05;16.20;99.90
1996;DHT22;38556;47.068;15.408;2022-09-09T05:06:33;16.20;99.90
1996;DHT22;38556;47.068;15.408;2022-09-09T05:09:01;16.20;99.90
1996;DHT22;38556;47.068;15.408;2022-09-09T05:11:31;16.60;99.90
1996;DHT22;38556;47.068;15.408;2022-09-09T05:14:01;16.60;99.90
1996;DHT22;38556;47.068;15.408;2022-09-09T05:16:29;17.00;99.90
1996;DHT22;38556;47.068;15.408;2022-09-09T05:18:57;17.20;99.90
1996;DHT22;38556;47.068;15.408;2022-09-09T05:23:54;17.60;99.90
1996;DHT22;38556;47.068;15.408;2022-09-09T05:26:22;17.70;99.90
1996;DHT22;38556;47.068;15.408;2022-09-09T05:28:50;17.70;99.90
1996;DHT22;38556;47.068;15.408;2022-09-09T05:31:19;17.70;99.90
1996;DHT22;38556;47.068;15.408;2022-09-09T05:33:47;17.80;99.90
1996;DHT22;38556;47.068;15.408;2022-09-09T05:36:17;18.00;99.90
1996;DHT22;38556;47.068;15.408;2022-09-09T05:38:47;18.20;99.90
1996;DHT22;38556;47.068;15.408;2022-09-09T05:41:15;18.50;99.90
1996;DHT22;38556;47.068;15.408;2022-09-09T05:43:43;18.60;99.90
1996;DHT22;38556;47.068;15.408;2022-09-09T05:46:15;19.20;99.90
1996;DHT22;38556;47.068;15.408;2022-09-09T05:48:43;19.30;99.90
1996;DHT22;38556;47.068;15.408;2022-09-09T05:51:13;19.30;99.90
1996;DHT22;38556;47.068;15.408;2022-09-09T05:53:43;19.40;99.90
1996;DHT22;38556;47.068;15.408;2022-09-09T05:56:13;19.40;99.90
1996;DHT22;38556;47.068;15.408;2022-09-09T05:58:41;19.60;99.90
1996;DHT22;38556;47.068;15.408;2022-09-09T06:01:11;19.60;99.90
1996;DHT22;38556;47.068;15.408;2022-09-09T06:03:40;19.80;99.90
1996;DHT22;38556;47.068;15.408;2022-09-09T06:06:10;19.80;99.90
1996;DHT22;38556;47.068;15.408;2022-09-09T06:08:39;19.80;99.90
1996;DHT22;38556;47.068;15.408;2022-09-09T06:11:09;19.80;99.90
1996;DHT22;38556;47.068;15.408;2022-09-09T06:13:38;19.90;99.90
1996;DHT22;38556;47.068;15.408;2022-09-09T06:16:07;20.00;99.90
1996;DHT22;38556;47.068;15.408;2022-09-09T06:18:34;20.20;99.90
1996;DHT22;38556;47.068;15.408;2022-09-09T06:21:04;20.30;99.90
1996;DHT22;38556;47.068;15.408;2022-09-09T06:23:33;20.40;99.90
1996;DHT22;38556;47.068;15.408;2022-09-09T06:26:05;20.40;99.90
1996;DHT22;38556;47.068;15.408;2022-09-09T06:28:32;20.40;99.90
1996;DHT22;38556;47.068;15.408;2022-09-09T06:31:03;20.40;99.90
1996;DHT22;38556;47.068;15.408;2022-09-09T06:33:33;20.30;99.90
1996;DHT22;38556;47.068;15.408;2022-09-09T06:36:02;20.20;99.90
1996;DHT22;38556;47.068;15.408;2022-09-09T06:38:29;20.10;99.90
1996;DHT22;38556;47.068;15.408;2022-09-09T06:40:58;20.10;99.90
1996;DHT22;38556;47.068;15.408;2022-09-09T06:43:26;20.00;99.90
1996;DHT22;38556;47.068;15.408;2022-09-09T06:45:55;20.20;99.90
1996;DHT22;38556;47.068;15.408;2022-09-09T06:50:59;20.50;99.90
1996;DHT22;38556;47.068;15.408;2022-09-09T06:53:26;20.20;99.90
1996;DHT22;38556;47.068;15.408;2022-09-09T06:55:54;20.20;99.90
1996;DHT22;38556;47.068;15.408;2022-09-09T06:58:21;20.20;99.90
1996;DHT22;38556;47.068;15.408;2022-09-09T07:00:50;20.10;99.90
1996;DHT22;38556;47.068;15.408;2022-09-09T07:03:17;20.20;99.90
1996;DHT22;38556;47.068;15.408;2022-09-09T07:08:23;20.20;99.90
1996;DHT22;38556;47.068;15.408;2022-09-09T07:10:51;20.20;99.90
1996;DHT22;38556;47.068;15.408;2022-09-09T07:13:23;20.20;99.90
1996;DHT22;38556;47.068;15.408;2022-09-09T07:15:51;20.30;99.90
1996;DHT22;38556;47.068;15.408;2022-09-09T07:18:19;23.70;99.90
1996;DHT22;38556;47.068;15.408;2022-09-09T07:20:54;20.30;99.90
1996;DHT22;38556;47.068;15.408;2022-09-09T07:23:23;20.30;99.90
1996;DHT22;38556;47.068;15.408;2022-09-09T07:25:50;20.30;99.90
1996;DHT22;38556;47.068;15.408;2022-09-09T07:28:19;20.10;99.90
1996;DHT22;38556;47.068;15.408;2022-09-09T07:30:53;20.10;99.90
1996;DHT22;38556;47.068;15.408;2022-09-09T07:33:20;20.10;99.90
1996;DHT22;38556;47.068;15.408;2022-09-09T07:35:48;20.10;99.90
1996;DHT22;38556;47.068;15.408;2022-09-09T07:38:16;20.10;99.90
1996;DHT22;38556;47.068;15.408;2022-09-09T07:40:45;20.20;99.90
1996;DHT22;38556;47.068;15.408;2022-09-09T07:43:12;20.10;99.90
1996;DHT22;38556;47.068;15.408;2022-09-09T07:45:39;20.10;99.90
1996;DHT22;38556;47.068;15.408;2022-09-09T07:48:09;20.10;99.90
1996;DHT22;38556;47.068;15.408;2022-09-09T07:50:38;20.10;99.90
1996;DHT22;38556;47.068;15.408;2022-09-09T07:53:05;20.20;99.90
1996;DHT22;38556;47.068;15.408;2022-09-09T07:55:34;20.20;99.90
1996;DHT22;38556;47.068;15.408;2022-09-09T07:58:01;20.20;99.90
1996;DHT22;38556;47.068;15.408;2022-09-09T08:00:28;20.30;99.90
1996;DHT22;38556;47.068;15.408;2022-09-09T08:02:56;20.30;99.90
1996;DHT22;38556;47.068;15.408;2022-09-09T08:05:23;20.20;99.90
1996;DHT22;38556;47.068;15.408;2022-09-09T08:07:51;20.30;99.90
1996;DHT22;38556;47.068;15.408;2022-09-09T08:10:18;20.20;99.90
1996;DHT22;38556;47.068;15.408;2022-09-09T08:12:47;20.20;99.90
1996;DHT22;38556;47.068;15.408;2022-09-09T08:15:14;20.20;99.90
1996;DHT22;38556;47.068;15.408;2022-09-09T08:17:42;20.20;99.90
1996;DHT22;38556;47.068;15.408;2022-09-09T08:20:09;20.40;99.90
1996;DHT22;38556;47.068;15.408;2022-09-09T08:22:36;20.40;99.90
1996;DHT22;38556;47.068;15.408;2022-09-09T08:25:05;20.50;99.90
1996;DHT22;38556;47.068;15.408;2022-09-09T08:27:34;20.40;99.90
1996;DHT22;38556;47.068;15.408;2022-09-09T08:30:04;20.50;99.90
1996;DHT22;38556;47.068;15.408;2022-09-09T08:32:31;20.50;99.90
1996;DHT22;38556;47.068;15.408;2022-09-09T08:34:58;20.60;99.90
1996;DHT22;38556;47.068;15.408;2022-09-09T08:37:26;20.50;99.90
1996;DHT22;38556;47.068;15.408;2022-09-09T08:39:53;20.20;99.90
1996;DHT22;38556;47.068;15.408;2022-09-09T08:42:31;20.40;99.90
1996;DHT22;38556;47.068;15.408;2022-09-09T08:45:22;20.30;99.90
1996;DHT22;38556;47.068;15.408;2022-09-09T08:48:10;20.20;99.90
1996;DHT22;38556;47.068;15.408;2022-09-09T08:50:42;20.10;99.90
1996;DHT22;38556;47.068;15.408;2022-09-09T08:53:17;20.20;99.90
1996;DHT22;38556;47.068;15.408;2022-09-09T08:55:49;20.10;99.90
1996;DHT22;38556;47.068;15.408;2022-09-09T08:58:19;20.20;99.90
1996;DHT22;38556;47.068;15.408;2022-09-09T09:01:01;20.30;99.90
1996;DHT22;38556;47.068;15.408;2022-09-09T09:03:36;20.40;99.90
1996;DHT22;38556;47.068;15.408;2022-09-09T09:06:13;20.30;99.90
1996;DHT22;38556;47.068;15.408;2022-09-09T09:08:54;20.20;99.90
1996;DHT22;38556;47.068;15.408;2022-09-09T09:11:24;20.20;99.90
1996;DHT22;38556;47.068;15.408;2022-09-09T09:16:29;20.00;99.90
1996;DHT22;38556;47.068;15.408;2022-09-09T09:18:58;20.00;99.90
1996;DHT22;38556;47.068;15.408;2022-09-09T09:21:34;19.70;99.90
1996;DHT22;38556;47.068;15.408;2022-09-09T09:24:01;19.70;99.90
1996;DHT22;38556;47.068;15.408;2022-09-09T09:26:34;19.90;99.90
1996;DHT22;38556;47.068;15.408;2022-09-09T09:29:10;20.00;99.90
1996;DHT22;38556;47.068;15.408;2022-09-09T09:31:42;19.80;99.90
1996;DHT22;38556;47.068;15.408;2022-09-09T09:34:11;20.00;99.90
1996;DHT22;38556;47.068;15.408;2022-09-09T09:36:41;20.10;99.90
1996;DHT22;38556;47.068;15.408;2022-09-09T09:39:10;20.40;99.90
1996;DHT22;38556;47.068;15.408;2022-09-09T09:41:39;20.50;99.90
1996;DHT22;38556;47.068;15.408;2022-09-09T09:44:22;20.10;99.90
1996;DHT22;38556;47.068;15.408;2022-09-09T09:46:52;20.00;99.90
1996;DHT22;38556;47.068;15.408;2022-09-09T09:49:19;20.20;99.90
1996;DHT22;38556;47.068;15.408;2022-09-09T09:51:47;20.40;99.90
1996;DHT22;38556;47.068;15.408;2022-09-09T09:54:18;20.60;99.90
1996;DHT22;38556;47.068;15.408;2022-09-09T09:56:49;20.60;99.90
1996;DHT22;38556;47.068;15.408;2022-09-09T09:59:32;20.80;99.90
1996;DHT22;38556;47.068;15.408;2022-09-09T10:02:16;20.80;99.90
1996;DHT22;38556;47.068;15.408;2022-09-09T10:04:44;21.10;99.90
1996;DHT22;38556;47.068;15.408;2022-09-09T10:07:15;21.40;99.90
1996;DHT22;38556;47.068;15.408;2022-09-09T10:09:44;21.10;99.90
1996;DHT22;38556;47.068;15.408;2022-09-09T10:12:21;21.40;99.90
1996;DHT22;38556;47.068;15.408;2022-09-09T10:15:02;21.40;99.90
1996;DHT22;38556;47.068;15.408;2022-09-09T10:17:42;21.70;99.90
1996;DHT22;38556;47.068;15.408;2022-09-09T10:20:20;21.80;99.90
1996;DHT22;38556;47.068;15.408;2022-09-09T10:22:51;21.80;99.90
1996;DHT22;38556;47.068;15.408;2022-09-09T10:25:39;21.80;99.90
1996;DHT22;38556;47.068;15.408;2022-09-09T10:28:37;21.90;99.90
1996;DHT22;38556;47.068;15.408;2022-09-09T10:31:19;22.00;99.90
1996;DHT22;38556;47.068;15.408;2022-09-09T10:33:58;22.10;99.90
1996;DHT22;38556;47.068;15.408;2022-09-09T10:36:29;22.30;99.90
1996;DHT22;38556;47.068;15.408;2022-09-09T10:39:00;22.40;99.90
1996;DHT22;38556;47.068;15.408;2022-09-09T10:41:43;22.00;99.90
1996;DHT22;38556;47.068;15.408;2022-09-09T10:44:24;22.00;99.90
1996;DHT22;38556;47.068;15.408;2022-09-09T10:50:18;22.30;99.90
1996;DHT22;38556;47.068;15.408;2022-09-09T10:52:53;22.20;99.90
1996;DHT22;38556;47.068;15.408;2022-09-09T10:55:28;22.20;99.90
1996;DHT22;38556;47.068;15.408;2022-09-09T10:57:59;22.30;99.90
1996;DHT22;38556;47.068;15.408;2022-09-09T11:00:37;22.50;99.90
1996;DHT22;38556;47.068;15.408;2022-09-09T11:03:05;22.60;99.90
1996;DHT22;38556;47.068;15.408;2022-09-09T11:05:41;22.70;99.90
1996;DHT22;38556;47.068;15.408;2022-09-09T11:08:13;22.70;99.90
1996;DHT22;38556;47.068;15.408;2022-09-09T11:10:45;22.60;99.90
1996;DHT22;38556;47.068;15.408;2022-09-09T11:13:17;22.60;99.90
1996;DHT22;38556;47.068;15.408;2022-09-09T11:15:50;22.50;99.90
1996;DHT22;38556;47.068;15.408;2022-09-09T11:18:20;22.20;99.90
1996;DHT22;38556;47.068;15.408;2022-09-09T11:20:54;22.40;99.90
1996;DHT22;38556;47.068;15.408;2022-09-09T11:23:27;22.30;99.90
1996;DHT22;38556;47.068;15.408;2022-09-09T11:25:58;21.90;99.90
1996;DHT22;38556;47.068;15.408;2022-09-09T11:28:43;22.10;99.90
1996;DHT22;38556;47.068;15.408;2022-09-09T11:31:33;22.10;99.90
1996;DHT22;38556;47.068;15.408;2022-09-09T11:34:25;22.10;99.90
1996;DHT22;38556;47.068;15.408;2022-09-09T11:37:14;22.30;99.90
1996;DHT22;38556;47.068;15.408;2022-09-09T11:40:14;22.20;99.90
1996;DHT22;38556;47.068;15.408;2022-09-09T11:42:42;22.30;99.90
1996;DHT22;38556;47.068;15.408;2022-09-09T11:45:11;22.50;99.90
1996;DHT22;38556;47.068;15.408;2022-09-09T11:47:51;22.50;99.90
1996;DHT22;38556;47.068;15.408;2022-09-09T11:50:31;22.20;99.90
1996;DHT22;38556;47.068;15.408;2022-09-09T11:53:19;22.10;99.90
1996;DHT22;38556;47.068;15.408;2022-09-09T11:56:07;22.00;99.90
1996;DHT22;38556;47.068;15.408;2022-09-09T11:58:38;21.80;99.90
1996;DHT22;38556;47.068;15.408;2022-09-09T12:01:14;22.10;99.90
1996;DHT22;38556;47.068;15.408;2022-09-09T12:03:45;21.70;99.90
1996;DHT22;38556;47.068;15.408;2022-09-09T12:06:16;22.00;99.90
1996;DHT22;38556;47.068;15.408;2022-09-09T12:08:50;22.00;99.90
1996;DHT22;38556;47.068;15.408;2022-09-09T12:11:26;22.30;99.90
1996;DHT22;38556;47.068;15.408;2022-09-09T12:13:55;22.30;99.90
1996;DHT22;38556;47.068;15.408;2022-09-09T12:16:31;22.20;99.90
1996;DHT22;38556;47.068;15.408;2022-09-09T12:19:05;22.30;99.90
1996;DHT22;38556;47.068;15.408;2022-09-09T12:21:37;22.40;99.90
1996;DHT22;38556;47.068;15.408;2022-09-09T12:24:11;22.20;99.90
1996;DHT22;38556;47.068;15.408;2022-09-09T12:26:40;22.00;99.90
1996;DHT22;38556;47.068;15.408;2022-09-09T12:29:19;22.40;99.90
1996;DHT22;38556;47.068;15.408;2022-09-09T12:31:55;22.70;99.90
1996;DHT22;38556;47.068;15.408;2022-09-09T12:34:33;22.90;99.90
1996;DHT22;38556;47.068;15.408;2022-09-09T12:37:11;23.10;99.90
1996;DHT22;38556;47.068;15.408;2022-09-09T12:39:46;23.30;99.90
1996;DHT22;38556;47.068;15.408;2022-09-09T12:42:17;25.90;99.90
1996;DHT22;38556;47.068;15.408;2022-09-09T12:44:54;23.40;99.90
1996;DHT22;38556;47.068;15.408;2022-09-09T12:47:30;23.20;99.90
1996;DHT22;38556;47.068;15.408;2022-09-09T12:50:01;23.00;99.90
1996;DHT22;38556;47.068;15.408;2022-09-09T12:52:30;22.60;99.90
1996;DHT22;38556;47.068;15.408;2022-09-09T12:55:03;22.00;99.90
1996;DHT22;38556;47.068;15.408;2022-09-09T12:57:35;21.60;99.90
1996;DHT22;38556;47.068;15.408;2022-09-09T13:00:11;21.30;99.90
1996;DHT22;38556;47.068;15.408;2022-09-09T13:02:46;21.40;99.90
1996;DHT22;38556;47.068;15.408;2022-09-09T13:05:19;21.90;99.90
1996;DHT22;38556;47.068;15.408;2022-09-09T13:07:47;21.90;99.90
1996;DHT22;38556;47.068;15.408;2022-09-09T13:10:24;21.50;99.90
1996;DHT22;38556;47.068;15.408;2022-09-09T13:12:53;21.50;99.90
1996;DHT22;38556;47.068;15.408;2022-09-09T13:15:22;21.30;99.90
1996;DHT22;38556;47.068;15.408;2022-09-09T13:17:54;20.90;99.90
1996;DHT22;38556;47.068;15.408;2022-09-09T13:20:23;20.80;99.90
1996;DHT22;38556;47.068;15.408;2022-09-09T13:22:52;20.80;99.90
1996;DHT22;38556;47.068;15.408;2022-09-09T13:25:24;20.60;99.90
1996;DHT22;38556;47.068;15.408;2022-09-09T13:27:55;20.70;99.90
1996;DHT22;38556;47.068;15.408;2022-09-09T13:30:26;20.80;99.90
1996;DHT22;38556;47.068;15.408;2022-09-09T13:33:17;20.80;99.90
1996;DHT22;38556;47.068;15.408;2022-09-09T13:35:48;16.00;99.90
1996;DHT22;38556;47.068;15.408;2022-09-09T13:38:16;20.80;99.90
1996;DHT22;38556;47.068;15.408;2022-09-09T13:40:59;20.70;99.90
1996;DHT22;38556;47.068;15.408;2022-09-09T13:43:32;20.60;99.90
1996;DHT22;38556;47.068;15.408;2022-09-09T13:46:03;20.70;99.90
1996;DHT22;38556;47.068;15.408;2022-09-09T13:48:30;20.80;99.90
1996;DHT22;38556;47.068;15.408;2022-09-09T13:51:01;21.00;99.90
1996;DHT22;38556;47.068;15.408;2022-09-09T13:53:31;21.20;99.90
1996;DHT22;38556;47.068;15.408;2022-09-09T13:56:01;21.30;99.90
1996;DHT22;38556;47.068;15.408;2022-09-09T13:58:28;21.30;99.90
1996;DHT22;38556;47.068;15.408;2022-09-09T14:00:56;21.20;99.90
1996;DHT22;38556;47.068;15.408;2022-09-09T14:03:23;21.20;99.90
1996;DHT22;38556;47.068;15.408;2022-09-09T14:05:50;21.30;99.90
1996;DHT22;38556;47.068;15.408;2022-09-09T14:08:23;21.30;99.90
1996;DHT22;38556;47.068;15.408;2022-09-09T14:10:51;21.20;99.90
1996;DHT22;38556;47.068;15.408;2022-09-09T14:13:20;21.20;99.90
1996;DHT22;38556;47.068;15.408;2022-09-09T14:15:48;21.20;99.90
1996;DHT22;38556;47.068;15.408;2022-09-09T14:18:16;21.30;99.90
1996;DHT22;38556;47.068;15.408;2022-09-09T14:20:44;21.40;99.90
1996;DHT22;38556;47.068;15.408;2022-09-09T14:23:12;21.30;99.90
1996;DHT22;38556;47.068;15.408;2022-09-09T14:25:42;21.00;99.90
1996;DHT22;38556;47.068;15.408;2022-09-09T14:28:11;20.70;99.90
1996;DHT22;38556;47.068;15.408;2022-09-09T14:30:41;20.50;99.90
1996;DHT22;38556;47.068;15.408;2022-09-09T14:33:12;20.50;99.90
1996;DHT22;38556;47.068;15.408;2022-09-09T14:35:40;20.50;99.90
1996;DHT22;38556;47.068;15.408;2022-09-09T14:38:07;20.50;99.90
1996;DHT22;38556;47.068;15.408;2022-09-09T14:40:36;20.50;99.90
1996;DHT22;38556;47.068;15.408;2022-09-09T14:43:04;20.50;99.90
1996;DHT22;38556;47.068;15.408;2022-09-09T14:45:32;20.50;99.90
1996;DHT22;38556;47.068;15.408;2022-09-09T14:48:01;20.50;99.90
1996;DHT22;38556;47.068;15.408;2022-09-09T14:50:29;20.20;99.90
1996;DHT22;38556;47.068;15.408;2022-09-09T14:52:56;20.20;99.90
1996;DHT22;38556;47.068;15.408;2022-09-09T14:55:24;20.30;99.90
1996;DHT22;38556;47.068;15.408;2022-09-09T14:57:51;20.20;99.90
1996;DHT22;38556;47.068;15.408;2022-09-09T15:00:18;20.20;99.90
1996;DHT22;38556;47.068;15.408;2022-09-09T15:02:45;20.10;99.90
1996;DHT22;38556;47.068;15.408;2022-09-09T15:05:14;20.20;99.90
1996;DHT22;38556;47.068;15.408;2022-09-09T15:07:42;20.10;99.90
1996;DHT22;38556;47.068;15.408;2022-09-09T15:10:10;19.70;99.90
1996;DHT22;38556;47.068;15.408;2022-09-09T15:12:37;19.70;99.90
1996;DHT22;38556;47.068;15.408;2022-09-09T15:15:05;19.70;99.90
1996;DHT22;38556;47.068;15.408;2022-09-09T15:17:33;19.70;99.90
1996;DHT22;38556;47.068;15.408;2022-09-09T15:20:01;19.60;99.90
1996;DHT22;38556;47.068;15.408;2022-09-09T15:22:30;19.60;99.90
1996;DHT22;38556;47.068;15.408;2022-09-09T15:24:58;19.70;99.90
1996;DHT22;38556;47.068;15.408;2022-09-09T15:27:25;19.90;99.90
1996;DHT22;38556;47.068;15.408;2022-09-09T15:29:52;19.90;99.90
1996;DHT22;38556;47.068;15.408;2022-09-09T15:32:19;19.90;99.90
1996;DHT22;38556;47.068;15.408;2022-09-09T15:34:47;19.30;99.90
1996;DHT22;38556;47.068;15.408;2022-09-09T15:37:16;19.70;99.90
1996;DHT22;38556;47.068;15.408;2022-09-09T15:39:49;20.00;99.90
1996;DHT22;38556;47.068;15.408;2022-09-09T15:42:16;19.80;99.90
1996;DHT22;38556;47.068;15.408;2022-09-09T15:44:44;19.80;99.90
1996;DHT22;38556;47.068;15.408;2022-09-09T15:47:11;19.80;99.90
1996;DHT22;38556;47.068;15.408;2022-09-09T15:49:41;19.90;99.90
1996;DHT22;38556;47.068;15.408;2022-09-09T15:52:09;20.10;99.90
1996;DHT22;38556;47.068;15.408;2022-09-09T15:54:37;20.10;99.90
1996;DHT22;38556;47.068;15.408;2022-09-09T15:57:07;20.20;99.90
1996;DHT22;38556;47.068;15.408;2022-09-09T15:59:35;20.30;99.90
1996;DHT22;38556;47.068;15.408;2022-09-09T16:02:03;20.50;99.90
1996;DHT22;38556;47.068;15.408;2022-09-09T16:04:30;20.60;99.90
1996;DHT22;38556;47.068;15.408;2022-09-09T16:07:02;20.60;99.90
1996;DHT22;38556;47.068;15.408;2022-09-09T16:09:30;20.50;99.90
1996;DHT22;38556;47.068;15.408;2022-09-09T16:11:58;20.50;99.90
1996;DHT22;38556;47.068;15.408;2022-09-09T16:14:28;20.80;99.90
1996;DHT22;38556;47.068;15.408;2022-09-09T16:16:59;21.00;99.90